Time;durP1;ratioP1;P1;durP2;ratioP2;P2;SDS_P1;SDS_P2;PMS_P1;PMS_P2;Temp;Humidity;BMP_temperature;BMP_pressure;BME280_temperature;BME280_humidity;BME280_pressure;Samples;Min_cycle;Max_cycle;Signal;HPM_P1;HPM_P2
2023/08/14 00:01:56;;;;;;;3.92;1.90;;;17.20;99.90;;;;;;5073589;28;20028;-74
2023/08/14 00:04:22;;;;;;;2.95;2.03;;;17.20;99.90;;;;;;5076299;28;20024;-74
2023/08/14 00:06:48;;;;;;;2.67;1.80;;;17.20;99.90;;;;;;5068835;28;20318;-74
2023/08/14 00:09:13;;;;;;;3.15;1.98;;;17.10;99.90;;;;;;5073617;28;20558;-74
2023/08/14 00:11:39;;;;;;;2.97;2.10;;;17.10;99.90;;;;;;5065306;28;20287;-74
2023/08/14 00:14:04;;;;;;;4.60;2.28;;;17.20;99.90;;;;;;5072485;28;20033;-73
2023/08/14 00:16:30;;;;;;;2.65;1.80;;;17.20;99.90;;;;;;5075251;28;20035;-73
2023/08/14 00:18:56;;;;;;;2.13;1.45;;;17.30;99.90;;;;;;5057648;28;20052;-71
2023/08/14 00:21:23;;;;;;;6.70;1.83;;;17.30;99.90;;;;;;5075863;28;20028;-74
2023/08/14 00:23:49;;;;;;;3.88;1.73;;;17.30;99.90;;;;;;5075612;28;20028;-73
2023/08/14 00:26:15;;;;;;;1.70;1.60;;;17.20;99.90;;;;;;5074551;28;20020;-72
2023/08/14 00:28:41;;;;;;;2.05;1.85;;;17.20;99.90;;;;;;5069627;28;20035;-74
2023/08/14 00:31:06;;;;;;;1.77;1.67;;;17.20;99.90;;;;;;5069543;28;20047;-73
2023/08/14 00:33:32;;;;;;;2.28;2.05;;;17.10;99.90;;;;;;5075046;28;20027;-73
2023/08/14 00:35:58;;;;;;;2.75;1.83;;;17.00;99.90;;;;;;5071100;28;20036;-73
2023/08/14 00:38:24;;;;;;;2.25;1.80;;;17.00;99.90;;;;;;5058117;28;20051;-74
2023/08/14 00:40:52;;;;;;;2.92;2.13;;;17.00;99.90;;;;;;5067509;28;20119;-73
2023/08/14 00:43:21;;;;;;;2.72;2.17;;;17.00;99.90;;;;;;5068925;28;20697;-73
2023/08/14 00:45:47;;;;;;;3.50;2.28;;;17.00;99.90;;;;;;5070121;28;20120;-73
2023/08/14 00:48:16;;;;;;;2.50;2.30;;;17.10;99.90;;;;;;5072413;28;20032;-74
2023/08/14 00:50:43;;;;;;;4.05;1.60;;;17.10;99.90;;;;;;5074449;28;20113;-73
2023/08/14 00:53:10;;;;;;;3.40;1.75;;;17.10;99.90;;;;;;5063622;28;20059;-73
2023/08/14 00:55:36;;;;;;;4.93;2.88;;;17.00;99.90;;;;;;5073196;28;20043;-73
2023/08/14 00:58:02;;;;;;;3.95;2.17;;;16.90;99.90;;;;;;5060847;28;20024;-73
2023/08/14 01:00:29;;;;;;;4.22;1.80;;;17.00;99.90;;;;;;5069788;28;20524;-73
2023/08/14 01:02:55;;;;;;;1.50;1.40;;;16.90;99.90;;;;;;5071051;28;20032;-73
2023/08/14 01:05:23;;;;;;;2.65;1.67;;;16.90;99.90;;;;;;5066162;28;20051;-74
2023/08/14 01:07:49;;;;;;;2.17;1.60;;;16.90;99.90;;;;;;5063510;28;20077;-73
2023/08/14 01:10:15;;;;;;;2.85;1.70;;;16.90;99.90;;;;;;5052874;28;20036;-73
2023/08/14 01:13:10;;;;;;;3.25;1.85;;;16.80;99.90;;;;;;5073427;28;20055;-74
2023/08/14 01:15:46;;;;;;;2.65;1.60;;;16.80;99.90;;;;;;5071985;28;20033;-74
2023/08/14 01:18:15;;;;;;;3.25;1.60;;;16.80;99.90;;;;;;5052278;28;20736;-73
2023/08/14 01:20:48;;;;;;;2.38;1.85;;;16.80;99.90;;;;;;5070256;28;20401;-73
2023/08/14 01:23:45;;;;;;;2.38;2.00;;;16.60;99.90;;;;;;5049635;28;20029;-74
2023/08/14 01:26:11;;;;;;;5.35;2.10;;;16.60;99.90;;;;;;4987104;28;20149;-74
2023/08/14 01:28:38;;;;;;;3.53;1.98;;;16.70;99.90;;;;;;5065426;28;20032;-74
2023/08/14 01:31:03;;;;;;;1.80;1.70;;;16.70;99.90;;;;;;5068961;28;20028;-73
2023/08/14 01:33:29;;;;;;;2.58;2.08;;;16.70;99.90;;;;;;5065089;28;20024;-73
2023/08/14 01:36:05;;;;;;;2.22;1.85;;;16.70;99.90;;;;;;5067018;28;20028;-74
2023/08/14 01:38:51;;;;;;;5.25;2.17;;;16.60;99.90;;;;;;5069529;28;20124;-73
2023/08/14 01:41:31;;;;;;;1.95;1.70;;;16.70;99.90;;;;;;5038304;28;20036;-73
2023/08/14 01:43:59;;;;;;;3.78;1.85;;;16.60;99.90;;;;;;5074145;28;20100;-73
2023/08/14 01:46:26;;;;;;;4.30;2.28;;;16.50;99.90;;;;;;5075159;28;20099;-73
2023/08/14 01:48:56;;;;;;;2.17;1.75;;;16.50;99.90;;;;;;5071991;28;20044;-73
2023/08/14 01:51:24;;;;;;;6.38;2.10;;;16.50;99.90;;;;;;5073173;28;20062;-72
2023/08/14 01:53:49;;;;;;;1.77;1.67;;;16.50;99.90;;;;;;5072133;28;20039;-73
2023/08/14 01:56:15;;;;;;;2.33;1.90;;;16.50;99.90;;;;;;5073321;28;20060;-73
2023/08/14 01:58:41;;;;;;;3.05;2.10;;;16.40;99.90;;;;;;5071946;28;20087;-73
2023/08/14 02:01:06;;;;;;;2.58;2.00;;;16.40;99.90;;;;;;5076574;28;20032;-74
2023/08/14 02:03:32;;;;;;;2.92;1.80;;;16.40;99.90;;;;;;5067200;28;20040;-74
2023/08/14 02:05:57;;;;;;;2.63;1.88;;;16.30;99.90;;;;;;5075407;28;20036;-74
2023/08/14 02:08:23;;;;;;;4.88;2.03;;;16.40;99.90;;;;;;5068808;28;20056;-73
2023/08/14 02:10:48;;;;;;;2.42;2.05;;;16.40;99.90;;;;;;5076538;28;20055;-74
2023/08/14 02:13:14;;;;;;;4.60;2.08;;;16.50;99.90;;;;;;5071333;28;20039;-74
2023/08/14 02:15:40;;;;;;;1.83;1.73;;;16.50;99.90;;;;;;5067902;28;20035;-73
2023/08/14 02:18:05;;;;;;;1.95;1.50;;;16.40;99.90;;;;;;5072544;28;20024;-73
2023/08/14 02:20:31;;;;;;;3.85;1.65;;;16.30;99.90;;;;;;5071975;28;20108;-74
2023/08/14 02:22:57;;;;;;;1.92;1.70;;;16.30;99.90;;;;;;5074351;28;20106;-73
2023/08/14 02:25:22;;;;;;;2.28;2.08;;;16.20;99.90;;;;;;5066199;28;20028;-72
2023/08/14 02:27:48;;;;;;;3.22;1.50;;;16.20;99.90;;;;;;5076041;28;20036;-74
2023/08/14 02:30:13;;;;;;;1.52;1.42;;;16.20;99.90;;;;;;5073776;28;20040;-73
2023/08/14 02:32:39;;;;;;;1.50;1.40;;;16.20;99.90;;;;;;5056803;28;20155;-74
2023/08/14 02:35:05;;;;;;;4.30;2.20;;;16.20;99.90;;;;;;5075494;28;20402;-74
2023/08/14 02:37:31;;;;;;;3.05;1.80;;;16.20;99.90;;;;;;5055778;28;20020;-74
2023/08/14 02:39:56;;;;;;;1.98;1.60;;;16.20;99.90;;;;;;5073579;28;20210;-73
2023/08/14 02:42:22;;;;;;;2.45;1.67;;;16.20;99.90;;;;;;5069866;28;20127;-73
2023/08/14 02:44:48;;;;;;;2.47;1.40;;;16.10;99.90;;;;;;5069180;28;20406;-73
2023/08/14 02:47:13;;;;;;;4.53;1.77;;;16.00;99.90;;;;;;5073080;28;20024;-73
2023/08/14 02:49:39;;;;;;;4.10;1.65;;;15.90;99.90;;;;;;5051807;28;20747;-73
2023/08/14 02:52:05;;;;;;;2.45;2.35;;;16.00;99.90;;;;;;5073000;28;20024;-73
2023/08/14 02:54:30;;;;;;;2.95;1.50;;;16.00;99.90;;;;;;5067859;28;20063;-74
2023/08/14 02:56:56;;;;;;;3.67;2.00;;;16.00;99.90;;;;;;5067556;28;20103;-73
2023/08/14 02:59:22;;;;;;;6.03;1.70;;;15.90;99.90;;;;;;5064684;28;20103;-72
2023/08/14 03:01:47;;;;;;;3.90;2.05;;;15.90;99.90;;;;;;5074488;28;20030;-74
2023/08/14 03:04:15;;;;;;;1.88;1.77;;;15.80;99.90;;;;;;5076519;28;20043;-74
2023/08/14 03:06:41;;;;;;;2.33;2.15;;;15.70;99.90;;;;;;5074635;28;20031;-75
2023/08/14 03:09:06;;;;;;;4.20;2.17;;;15.70;99.90;;;;;;5054474;28;20070;-74
2023/08/14 03:11:32;;;;;;;1.73;1.60;;;15.80;99.90;;;;;;5071305;28;20069;-73
2023/08/14 03:13:57;;;;;;;4.80;1.75;;;15.80;99.90;;;;;;5075472;28;20504;-73
2023/08/14 03:16:23;;;;;;;2.00;1.63;;;15.70;99.90;;;;;;5074214;28;20462;-74
2023/08/14 03:18:49;;;;;;;2.97;1.48;;;15.60;99.90;;;;;;5071908;28;20042;-73
2023/08/14 03:21:14;;;;;;;4.25;1.58;;;15.70;99.90;;;;;;5072317;28;20032;-73
2023/08/14 03:23:40;;;;;;;2.08;1.60;;;15.70;99.90;;;;;;5074212;28;20028;-73
2023/08/14 03:26:05;;;;;;;3.83;1.90;;;15.70;99.90;;;;;;5062659;28;20039;-74
2023/08/14 03:28:31;;;;;;;1.70;1.60;;;15.60;99.90;;;;;;5067825;28;20032;-73
2023/08/14 03:30:57;;;;;;;1.48;1.33;;;15.60;99.90;;;;;;5057293;28;20451;-73
2023/08/14 03:33:23;;;;;;;6.10;2.03;;;15.60;99.90;;;;;;5070754;28;20050;-74
2023/08/14 03:35:53;;;;;;;4.13;2.00;;;15.60;99.90;;;;;;5073053;28;20085;-74
2023/08/14 03:38:18;;;;;;;1.95;1.55;;;15.50;99.90;;;;;;5072807;28;20039;-73
2023/08/14 03:40:44;;;;;;;2.20;1.70;;;15.50;99.90;;;;;;5079766;28;20594;-73
2023/08/14 03:43:10;;;;;;;2.50;1.60;;;15.60;99.90;;;;;;5091328;27;20027;-73
2023/08/14 03:45:35;;;;;;;1.70;1.60;;;15.60;99.90;;;;;;5092351;28;20032;-73
2023/08/14 03:48:01;;;;;;;3.97;2.08;;;15.60;99.90;;;;;;5093676;28;20101;-73
2023/08/14 03:50:27;;;;;;;2.78;1.60;;;15.50;99.90;;;;;;5092867;27;20084;-74
2023/08/14 03:52:52;;;;;;;4.32;1.77;;;15.60;99.90;;;;;;5094639;27;20028;-73
2023/08/14 03:55:18;;;;;;;1.73;1.60;;;15.60;99.90;;;;;;5090801;28;20115;-73
2023/08/14 03:57:44;;;;;;;1.70;1.50;;;15.60;99.90;;;;;;5093376;27;20107;-73
2023/08/14 04:00:10;;;;;;;3.50;1.70;;;15.60;99.90;;;;;;5091431;27;20091;-74
2023/08/14 04:02:36;;;;;;;2.58;1.80;;;15.60;99.90;;;;;;5090437;28;20334;-73
2023/08/14 04:05:01;;;;;;;2.05;1.85;;;15.60;99.90;;;;;;5094502;28;20840;-73
2023/08/14 04:07:27;;;;;;;2.63;1.60;;;15.50;99.90;;;;;;5085251;28;20085;-73
2023/08/14 04:09:52;;;;;;;1.77;1.63;;;15.60;99.90;;;;;;5086514;28;20407;-73
2023/08/14 04:12:19;;;;;;;3.70;2.00;;;15.60;99.90;;;;;;5081372;27;20028;-74
2023/08/14 04:14:45;;;;;;;2.33;1.60;;;15.60;99.90;;;;;;5088320;27;20024;-74
2023/08/14 04:17:11;;;;;;;2.47;1.67;;;15.60;99.90;;;;;;5094638;28;20081;-74
2023/08/14 04:19:36;;;;;;;2.88;1.70;;;15.60;99.90;;;;;;5090560;27;20024;-73
2023/08/14 04:22:02;;;;;;;2.97;1.58;;;15.60;99.90;;;;;;5086545;28;20061;-73
2023/08/14 04:24:28;;;;;;;4.85;1.70;;;15.60;99.90;;;;;;5091042;27;20508;-75
2023/08/14 04:26:54;;;;;;;3.20;1.77;;;15.60;99.90;;;;;;5090528;28;20043;-74
2023/08/14 04:29:20;;;;;;;5.03;2.10;;;15.50;99.90;;;;;;5089917;28;20028;-74
2023/08/14 04:31:45;;;;;;;2.10;1.75;;;15.50;99.90;;;;;;5085928;28;20047;-74
2023/08/14 04:34:11;;;;;;;4.05;2.20;;;15.60;99.90;;;;;;5090268;27;20032;-73
2023/08/14 04:36:37;;;;;;;6.65;2.40;;;15.70;99.90;;;;;;5095098;28;21127;-75
2023/08/14 04:39:04;;;;;;;4.07;2.10;;;15.90;99.90;;;;;;5089689;28;20027;-75
2023/08/14 04:41:30;;;;;;;3.75;1.90;;;16.00;99.90;;;;;;5092238;28;20035;-74
2023/08/14 04:43:56;;;;;;;11.15;2.83;;;16.20;99.90;;;;;;5088063;28;20031;-74
2023/08/14 04:46:30;;;;;;;7.15;2.08;;;16.20;99.90;;;;;;5073951;28;20046;-73
2023/08/14 04:48:55;;;;;;;4.28;1.92;;;16.20;99.90;;;;;;5079129;28;20063;-75
2023/08/14 04:51:21;;;;;;;3.70;2.13;;;16.20;99.90;;;;;;5071558;28;20031;-73
2023/08/14 04:53:47;;;;;;;4.07;2.50;;;16.30;99.90;;;;;;5073721;28;20035;-75
2023/08/14 04:56:12;;;;;;;4.88;2.30;;;16.50;99.90;;;;;;5083716;28;20126;-75
2023/08/14 04:58:38;;;;;;;2.97;2.00;;;16.70;99.90;;;;;;5088096;28;20575;-74
2023/08/14 05:01:03;;;;;;;3.70;2.33;;;16.80;99.90;;;;;;5079094;28;20039;-74
2023/08/14 05:03:29;;;;;;;6.65;2.03;;;17.00;99.90;;;;;;5090944;28;20614;-74
2023/08/14 05:05:54;;;;;;;5.78;2.15;;;17.10;99.90;;;;;;5068454;28;20713;-73
2023/08/14 05:08:20;;;;;;;6.78;2.63;;;17.20;99.90;;;;;;5086289;28;20028;-73
2023/08/14 05:10:54;;;;;;;11.57;2.78;;;17.30;99.90;;;;;;5086277;28;20035;-74
2023/08/14 05:13:20;;;;;;;5.75;2.22;;;17.40;99.90;;;;;;5087911;28;20023;-75
2023/08/14 05:15:47;;;;;;;3.65;2.17;;;17.50;99.90;;;;;;5082506;28;20127;-73
2023/08/14 05:18:13;;;;;;;2.42;2.15;;;17.60;99.90;;;;;;5087569;28;20019;-74
2023/08/14 05:20:45;;;;;;;8.85;2.85;;;17.80;99.90;;;;;;5083217;28;20023;-74
2023/08/14 05:23:11;;;;;;;2.67;2.47;;;17.90;99.90;;;;;;5069243;28;20031;-73
2023/08/14 05:25:37;;;;;;;27.52;2.90;;;18.10;99.90;;;;;;5086053;28;20517;-75
2023/08/14 05:28:04;;;;;;;4.43;2.42;;;18.20;99.90;;;;;;5074411;28;20051;-75
2023/08/14 05:30:30;;;;;;;7.00;2.80;;;18.40;99.90;;;;;;5090308;28;20146;-75
2023/08/14 05:32:56;;;;;;;3.38;2.90;;;18.60;99.90;;;;;;5089330;28;20088;-75
2023/08/14 05:35:24;;;;;;;7.22;2.40;;;18.60;99.90;;;;;;5095863;28;20058;-75
2023/08/14 05:37:55;;;;;;;4.20;3.00;;;18.80;99.90;;;;;;5090224;28;20027;-74
2023/08/14 05:40:27;;;;;;;5.67;2.63;;;19.00;99.90;;;;;;5092542;28;20796;-69
2023/08/14 05:43:10;;;;;;;4.97;2.97;;;19.10;99.90;;;;;;5085293;28;20020;-68
2023/08/14 05:45:41;;;;;;;4.50;2.90;;;19.30;99.90;;;;;;5086825;28;20027;-70
2023/08/14 05:48:07;;;;;;;5.18;2.70;;;19.40;99.90;;;;;;5071952;28;20016;-67
2023/08/14 05:50:33;;;;;;;3.60;2.75;;;19.60;99.90;;;;;;5082919;28;20047;-73
2023/08/14 05:53:03;;;;;;;5.07;2.80;;;19.70;99.90;;;;;;5079118;28;20152;-68
2023/08/14 05:55:30;;;;;;;3.92;2.90;;;19.90;99.90;;;;;;5089673;28;20515;-68
2023/08/14 05:57:56;;;;;;;4.57;3.00;;;20.00;99.90;;;;;;5086669;28;20475;-68
2023/08/14 06:00:24;;;;;;;4.88;2.85;;;20.10;99.90;;;;;;5092154;28;20168;-68
2023/08/14 06:02:51;;;;;;;7.70;3.92;;;20.20;99.90;;;;;;5090660;28;20542;-68
2023/08/14 06:05:17;;;;;;;4.40;2.95;;;20.30;99.90;;;;;;5087988;27;20066;-67
2023/08/14 06:07:43;;;;;;;3.22;2.90;;;20.50;99.90;;;;;;5086875;28;20111;-67
2023/08/14 06:10:08;;;;;;;2.88;2.65;;;20.60;99.90;;;;;;5089438;28;20039;-66
2023/08/14 06:12:34;;;;;;;3.72;3.10;;;20.70;99.90;;;;;;5090410;28;20032;-67
2023/08/14 06:15:00;;;;;;;3.60;3.30;;;20.80;99.90;;;;;;5086868;28;20062;-67
2023/08/14 06:17:26;;;;;;;4.25;3.30;;;21.00;99.90;;;;;;5090642;28;20570;-67
2023/08/14 06:19:52;;;;;;;4.72;2.80;;;21.10;99.90;;;;;;5090913;28;20028;-67
2023/08/14 06:22:19;;;;;;;3.17;2.88;;;21.20;99.90;;;;;;5085184;28;20043;-67
2023/08/14 06:24:45;;;;;;;6.45;3.15;;;21.40;99.90;;;;;;5088549;28;20470;-67
2023/08/14 06:27:10;;;;;;;3.35;2.63;;;21.40;99.90;;;;;;5088069;28;20111;-67
2023/08/14 06:29:36;;;;;;;5.50;3.00;;;21.50;99.90;;;;;;5086816;28;20032;-68
2023/08/14 06:32:02;;;;;;;2.92;2.70;;;21.60;99.90;;;;;;5085619;28;20078;-66
2023/08/14 06:34:28;;;;;;;3.65;2.70;;;21.70;99.90;;;;;;5086730;28;20181;-67
2023/08/14 06:36:53;;;;;;;4.13;2.85;;;21.80;99.90;;;;;;5086203;28;20102;-67
2023/08/14 06:39:19;;;;;;;2.90;2.70;;;21.90;99.90;;;;;;5086083;28;20178;-68
2023/08/14 06:41:45;;;;;;;4.53;2.78;;;22.00;99.90;;;;;;5079140;28;20055;-68
2023/08/14 06:44:11;;;;;;;4.38;2.53;;;22.10;99.90;;;;;;5070246;28;20037;-67
2023/08/14 06:46:37;;;;;;;5.53;2.83;;;22.20;99.90;;;;;;5060563;28;20042;-63
2023/08/14 06:49:03;;;;;;;4.00;2.85;;;22.30;99.90;;;;;;5063182;28;20503;-67
2023/08/14 06:51:29;;;;;;;4.30;2.47;;;22.40;99.90;;;;;;5069688;28;20032;-67
2023/08/14 06:53:54;;;;;;;2.90;2.28;;;22.50;99.90;;;;;;5081052;28;20039;-73
2023/08/14 06:56:20;;;;;;;2.95;2.42;;;22.60;99.90;;;;;;5074891;28;20020;-72
2023/08/14 06:58:46;;;;;;;3.50;2.47;;;22.80;99.90;;;;;;5073656;28;20099;-73
2023/08/14 07:01:12;;;;;;;5.03;2.40;;;22.90;99.90;;;;;;5073658;28;20031;-73
2023/08/14 07:03:38;;;;;;;7.28;4.38;;;23.00;99.90;;;;;;5078454;28;20023;-73
2023/08/14 07:06:04;;;;;;;3.45;3.10;;;23.10;99.90;;;;;;5076951;28;20555;-67
2023/08/14 07:08:30;;;;;;;6.38;2.65;;;23.10;99.90;;;;;;5061258;28;20442;-67
2023/08/14 07:10:55;;;;;;;4.53;2.95;;;23.20;99.90;;;;;;5072545;28;20089;-71
2023/08/14 07:13:22;;;;;;;13.95;9.82;;;23.30;99.90;;;;;;5071998;28;20027;-68
2023/08/14 07:15:48;;;;;;;8.32;2.38;;;23.40;99.90;;;;;;5074374;28;20029;-69
2023/08/14 07:18:15;;;;;;;2.35;2.10;;;23.40;99.90;;;;;;5072793;28;20523;-68
2023/08/14 07:20:41;;;;;;;2.50;2.30;;;23.40;99.90;;;;;;5072863;28;20043;-72
2023/08/14 07:23:06;;;;;;;5.15;2.45;;;23.50;99.90;;;;;;5074332;28;20035;-66
2023/08/14 07:25:32;;;;;;;4.70;2.50;;;23.60;99.90;;;;;;5075802;28;20111;-68
2023/08/14 07:27:58;;;;;;;4.90;2.08;;;23.70;99.90;;;;;;5067882;28;20032;-68
2023/08/14 07:30:23;;;;;;;2.70;2.50;;;23.80;99.90;;;;;;5073925;28;20079;-67
2023/08/14 07:32:49;;;;;;;3.95;3.33;;;23.90;99.90;;;;;;5076444;28;20138;-67
2023/08/14 07:35:15;;;;;;;2.90;2.70;;;23.80;99.90;;;;;;5069222;28;20029;-65
2023/08/14 07:37:40;;;;;;;2.60;2.40;;;23.80;99.90;;;;;;5078051;28;20028;-66
2023/08/14 07:40:06;;;;;;;3.55;2.10;;;23.90;99.90;;;;;;5075490;28;20036;-66
2023/08/14 07:42:32;;;;;;;3.22;2.00;;;24.00;99.90;;;;;;5073158;28;20501;-65
2023/08/14 07:44:58;;;;;;;13.18;2.78;;;24.10;99.90;;;;;;5070709;28;20032;-65
2023/08/14 07:47:24;;;;;;;349.33;295.23;;;24.20;99.90;;;;;;5075480;28;20040;-66
2023/08/14 07:49:49;;;;;;;14.00;10.02;;;24.40;99.90;;;;;;5068202;28;20071;-64
2023/08/14 07:52:15;;;;;;;4.47;3.22;;;24.50;99.90;;;;;;5072533;28;20020;-65
2023/08/14 07:54:41;;;;;;;2.40;2.20;;;24.60;99.90;;;;;;5071721;28;20895;-65
2023/08/14 07:57:06;;;;;;;6.25;2.40;;;24.70;99.90;;;;;;5072373;28;20075;-65
2023/08/14 07:59:32;;;;;;;3.85;1.95;;;24.70;99.90;;;;;;5070904;28;20444;-66
2023/08/14 08:01:57;;;;;;;2.90;2.60;;;24.80;99.90;;;;;;5069576;28;20043;-65
2023/08/14 08:04:23;;;;;;;5.97;3.10;;;24.70;99.90;;;;;;5067692;28;20028;-66
2023/08/14 08:06:49;;;;;;;4.57;2.42;;;24.70;99.90;;;;;;5072392;28;20687;-66
2023/08/14 08:09:14;;;;;;;10.80;3.03;;;24.70;99.90;;;;;;5077375;28;20031;-65
2023/08/14 08:11:40;;;;;;;16.17;3.30;;;24.70;99.90;;;;;;5071949;28;20073;-67
2023/08/14 08:14:06;;;;;;;34.67;22.85;;;24.80;99.90;;;;;;5076628;28;20460;-66
2023/08/14 08:16:36;;;;;;;19.42;10.55;;;24.90;99.90;;;;;;5074512;28;20028;-67
2023/08/14 08:19:05;;;;;;;8.27;3.97;;;25.00;99.90;;;;;;5072750;28;20151;-67
2023/08/14 08:21:32;;;;;;;7.30;3.03;;;25.00;99.90;;;;;;5076842;28;20089;-67
2023/08/14 08:23:57;;;;;;;4.75;2.10;;;25.10;99.90;;;;;;5076155;28;20025;-66
2023/08/14 08:26:24;;;;;;;7.65;2.80;;;25.20;99.90;;;;;;5077436;28;20043;-66
2023/08/14 08:28:50;;;;;;;60.63;6.30;;;25.30;99.90;;;;;;5072125;28;20041;-66
2023/08/14 08:31:15;;;;;;;42.78;4.85;;;25.30;99.90;;;;;;5075779;28;20036;-65
2023/08/14 08:33:41;;;;;;;26.58;5.43;;;25.40;99.90;;;;;;5062242;28;20040;-66
2023/08/14 08:36:06;;;;;;;12.38;3.63;;;25.50;99.90;;;;;;5066834;28;20485;-65
2023/08/14 08:38:32;;;;;;;4.65;2.47;;;25.60;99.90;;;;;;5075880;28;20099;-66
2023/08/14 08:41:01;;;;;;;4.22;2.25;;;25.70;99.90;;;;;;5077638;28;20397;-67
2023/08/14 08:43:27;;;;;;;25.45;10.73;;;25.70;99.90;;;;;;5074176;28;20040;-69
2023/08/14 08:45:57;;;;;;;4.22;2.25;;;25.70;99.90;;;;;;5065142;28;20384;-64
2023/08/14 08:48:24;;;;;;;39.35;5.60;;;25.70;99.90;;;;;;5073869;28;20020;-67
2023/08/14 08:50:50;;;;;;;30.67;4.25;;;25.70;99.90;;;;;;5073368;28;20041;-66
2023/08/14 08:53:20;;;;;;;94.80;16.15;;;25.70;99.90;;;;;;5074149;28;20028;-66
2023/08/14 08:55:47;;;;;;;474.73;64.30;;;25.70;99.90;;;;;;5072938;28;20556;-65
2023/08/14 08:58:15;;;;;;;1501.25;483.02;;;25.70;99.90;;;;;;5072162;28;20024;-65
2023/08/14 09:00:42;;;;;;;96.28;15.50;;;25.70;99.90;;;;;;5074094;28;20028;-70
2023/08/14 09:03:09;;;;;;;37.17;22.58;;;25.90;99.90;;;;;;5075380;28;20035;-73
2023/08/14 09:05:35;;;;;;;38.70;4.80;;;26.00;99.90;;;;;;5068012;28;20020;-66
2023/08/14 09:08:01;;;;;;;10.27;2.10;;;26.00;99.90;;;;;;5055764;28;20036;-65
2023/08/14 09:10:27;;;;;;;3.67;2.10;;;26.00;99.90;;;;;;5066595;28;20029;-65
2023/08/14 09:12:55;;;;;;;3.28;2.05;;;26.10;99.90;;;;;;5076240;28;20023;-67
2023/08/14 09:15:23;;;;;;;29.25;8.82;;;26.20;99.90;;;;;;5070942;28;20046;-67
2023/08/14 09:17:51;;;;;;;142.52;15.20;;;26.40;99.90;;;;;;5069007;28;20043;-66
2023/08/14 09:20:17;;;;;;;191.50;20.50;;;26.30;99.90;;;;;;5069852;28;20126;-67
2023/08/14 09:22:43;;;;;;;113.70;41.35;;;26.40;99.90;;;;;;5073711;28;20180;-68
2023/08/14 09:25:09;;;;;;;62.85;29.48;;;26.40;99.90;;;;;;5072396;28;20543;-68
2023/08/14 09:27:35;;;;;;;10.15;2.08;;;26.30;99.90;;;;;;5058237;28;20016;-67
2023/08/14 09:30:01;;;;;;;2.20;2.00;;;26.30;99.90;;;;;;5073894;28;20189;-64
2023/08/14 09:32:26;;;;;;;3.70;1.83;;;26.40;99.90;;;;;;5068336;28;20032;-66
2023/08/14 09:35:03;;;;;;;18.58;7.93;;;26.60;99.90;;;;;;5071413;28;20975;-66
2023/08/14 09:37:29;;;;;;;4.25;3.33;;;26.60;99.90;;;;;;5071395;28;20036;-66
2023/08/14 09:40:16;;;;;;;3.97;2.17;;;26.80;99.90;;;;;;5073309;28;20629;-64
2023/08/14 09:42:47;;;;;;;7.15;2.40;;;26.80;99.90;;;;;;5072366;28;20062;-64
2023/08/14 09:45:14;;;;;;;265.95;39.67;;;26.70;99.90;;;;;;5072701;28;20032;-64
2023/08/14 09:47:45;;;;;;;24.58;4.53;;;26.50;99.90;;;;;;5069240;28;20414;-69
2023/08/14 09:50:14;;;;;;;9.77;2.80;;;26.60;99.90;;;;;;5075546;28;20110;-63
2023/08/14 09:52:42;;;;;;;97.70;84.15;;;26.60;99.90;;;;;;5074012;28;20032;-63
2023/08/14 09:55:08;;;;;;;3.75;2.60;;;26.70;99.90;;;;;;5073688;28;20036;-62
2023/08/14 09:57:34;;;;;;;6.07;2.85;;;26.80;99.90;;;;;;5075014;28;20028;-62
2023/08/14 10:00:00;;;;;;;18.63;8.07;;;27.00;99.90;;;;;;5071441;28;20808;-63
2023/08/14 10:02:26;;;;;;;7.50;1.77;;;27.00;99.90;;;;;;5072329;28;20028;-64
2023/08/14 10:04:53;;;;;;;2.55;1.42;;;27.10;99.90;;;;;;5076165;28;20024;-63
2023/08/14 10:07:23;;;;;;;4.85;1.60;;;27.10;99.90;;;;;;5078256;28;20024;-63
2023/08/14 10:09:54;;;;;;;4.47;1.70;;;27.30;99.90;;;;;;5070336;28;20129;-63
2023/08/14 10:12:28;;;;;;;4.82;1.77;;;27.30;99.90;;;;;;5067561;28;20037;-63
2023/08/14 10:15:05;;;;;;;9.02;1.20;;;27.40;99.90;;;;;;5070314;28;20114;-64
2023/08/14 10:17:54;;;;;;;7.88;2.42;;;27.50;99.90;;;;;;5070058;28;20032;-63
2023/08/14 10:20:22;;;;;;;6.55;1.73;;;27.60;99.60;;;;;;5069938;28;20937;-62
2023/08/14 10:22:49;;;;;;;3.17;1.50;;;27.50;99.90;;;;;;5071697;28;20028;-62
2023/08/14 10:25:15;;;;;;;2.72;1.50;;;27.40;99.40;;;;;;5073109;28;20051;-61
2023/08/14 10:27:41;;;;;;;2.13;1.73;;;27.40;99.80;;;;;;5054934;28;20023;-63
2023/08/14 10:30:08;;;;;;;3.35;1.30;;;27.40;99.40;;;;;;5073008;28;20094;-63
2023/08/14 10:32:35;;;;;;;1.38;1.27;;;27.40;99.00;;;;;;5074986;28;20385;-63
2023/08/14 10:35:00;;;;;;;5.53;1.90;;;27.30;99.30;;;;;;5069350;28;20060;-63
2023/08/14 10:37:28;;;;;;;1.48;1.30;;;27.50;99.90;;;;;;5072724;28;20174;-66
2023/08/14 10:40:18;;;;;;;9.27;1.90;;;27.70;99.80;;;;;;5067543;28;20058;-65
2023/08/14 10:42:50;;;;;;;3.42;1.85;;;27.80;98.00;;;;;;5058081;28;20048;-63
2023/08/14 10:45:17;;;;;;;1.70;1.33;;;27.70;98.40;;;;;;5063503;28;20056;-63
2023/08/14 10:47:42;;;;;;;19.25;3.00;;;27.80;98.50;;;;;;5071574;28;20047;-61
2023/08/14 10:50:17;;;;;;;13.02;2.20;;;27.90;97.30;;;;;;5064382;28;20040;-62
2023/08/14 10:52:52;;;;;;;7.15;1.83;;;27.70;97.80;;;;;;5071304;28;20036;-61
2023/08/14 10:55:24;;;;;;;9.70;1.60;;;27.70;97.50;;;;;;5069685;28;20051;-61
2023/08/14 10:57:51;;;;;;;8.23;2.05;;;27.60;97.90;;;;;;5066680;28;20125;-63
2023/08/14 11:00:24;;;;;;;9.30;1.70;;;27.60;97.40;;;;;;5063775;28;20032;-63
2023/08/14 11:03:11;;;;;;;6.55;2.10;;;27.50;97.20;;;;;;5071081;28;20040;-62
2023/08/14 11:05:39;;;;;;;7.85;1.73;;;27.60;97.80;;;;;;5064958;28;20060;-63
2023/08/14 11:08:10;;;;;;;1.70;1.60;;;27.70;97.00;;;;;;5066586;28;21383;-64
2023/08/14 11:10:36;;;;;;;7.40;1.70;;;27.60;97.80;;;;;;5070170;28;20048;-63
2023/08/14 11:13:06;;;;;;;7.35;2.42;;;27.80;98.70;;;;;;5044730;28;20040;-63
2023/08/14 11:15:34;;;;;;;3.47;1.48;;;28.00;98.00;;;;;;5068841;28;20040;-63
2023/08/14 11:18:00;;;;;;;83.95;70.78;;;28.20;97.50;;;;;;5064595;28;20038;-63
2023/08/14 11:20:27;;;;;;;403.55;302.92;;;28.30;97.80;;;;;;5067948;28;20372;-63
2023/08/14 11:22:53;;;;;;;8.70;6.10;;;28.40;97.20;;;;;;5068524;28;20035;-63
2023/08/14 11:25:20;;;;;;;2.53;1.65;;;28.30;97.70;;;;;;5065073;28;20036;-64
2023/08/14 11:27:54;;;;;;;29.13;21.27;;;28.30;97.60;;;;;;5077465;28;20548;-64
2023/08/14 11:30:23;;;;;;;6.88;2.55;;;28.40;98.20;;;;;;5072668;28;20040;-63
2023/08/14 11:32:50;;;;;;;1.92;1.30;;;28.60;98.20;;;;;;5068812;28;20477;-63
2023/08/14 11:35:17;;;;;;;4.72;2.03;;;28.80;95.40;;;;;;5071271;28;20070;-64
2023/08/14 11:37:43;;;;;;;3.83;1.65;;;28.80;96.70;;;;;;5054724;28;20586;-62
2023/08/14 11:40:10;;;;;;;18.25;1.70;;;28.90;97.80;;;;;;5068181;28;20029;-61
2023/08/14 11:42:38;;;;;;;5.97;1.88;;;28.90;97.00;;;;;;5069379;28;20054;-63
2023/08/14 11:45:05;;;;;;;3.08;1.75;;;28.80;95.90;;;;;;5065718;28;20027;-63
2023/08/14 11:47:37;;;;;;;5.05;1.63;;;28.60;96.70;;;;;;5076371;28;20089;-63
2023/08/14 11:50:04;;;;;;;13.15;7.30;;;28.50;96.50;;;;;;5077843;28;20071;-63
2023/08/14 11:52:30;;;;;;;4.75;1.70;;;28.50;97.10;;;;;;5070300;28;20085;-64
2023/08/14 11:54:56;;;;;;;3.65;1.70;;;28.70;96.80;;;;;;5077474;28;20032;-63
2023/08/14 11:57:26;;;;;;;3.78;1.58;;;28.80;95.60;;;;;;5075652;28;20028;-63
2023/08/14 11:59:57;;;;;;;3.92;1.63;;;28.70;95.20;;;;;;5077689;28;20020;-63
2023/08/14 12:02:27;;;;;;;3.90;1.60;;;28.50;94.20;;;;;;5067382;28;20024;-63
2023/08/14 12:04:54;;;;;;;1.60;1.50;;;28.50;93.60;;;;;;5069155;28;20027;-63
2023/08/14 12:07:21;;;;;;;9.55;2.20;;;28.50;94.00;;;;;;5058287;28;20027;-64
2023/08/14 12:09:47;;;;;;;15.07;2.97;;;28.50;95.90;;;;;;5070695;28;20129;-63
2023/08/14 12:12:13;;;;;;;3.47;1.67;;;28.60;95.40;;;;;;5063556;28;20105;-63
2023/08/14 12:14:44;;;;;;;4.78;1.42;;;28.70;94.60;;;;;;5067451;28;20371;-64
2023/08/14 12:17:11;;;;;;;20.65;2.70;;;28.90;95.80;;;;;;5074465;28;20399;-64
2023/08/14 12:19:40;;;;;;;11.07;2.72;;;29.00;95.70;;;;;;5062320;28;20042;-64
2023/08/14 12:22:09;;;;;;;4.82;1.50;;;29.00;95.40;;;;;;5068799;28;20021;-64
2023/08/14 12:24:41;;;;;;;1.40;1.30;;;28.90;95.50;;;;;;5059261;28;20033;-69
2023/08/14 12:27:27;;;;;;;4.28;1.80;;;28.90;94.20;;;;;;5047958;28;20033;-68
2023/08/14 12:29:54;;;;;;;2.08;1.67;;;28.80;94.80;;;;;;5056400;28;20055;-69
2023/08/14 12:32:22;;;;;;;4.53;1.70;;;28.80;96.50;;;;;;5072489;28;20029;-68
2023/08/14 12:34:48;;;;;;;5.85;1.70;;;28.90;95.70;;;;;;5068979;28;20423;-69
2023/08/14 12:37:15;;;;;;;5.43;1.80;;;28.90;95.40;;;;;;5066763;28;20024;-69
2023/08/14 12:39:43;;;;;;;1.50;1.40;;;28.90;95.10;;;;;;5060152;28;20027;-67
2023/08/14 12:42:12;;;;;;;2.78;1.45;;;28.80;95.80;;;;;;5073923;28;20408;-64
2023/08/14 12:44:38;;;;;;;3.60;1.80;;;28.90;94.00;;;;;;5070789;28;20517;-64
2023/08/14 12:47:04;;;;;;;7.72;2.55;;;28.90;95.60;;;;;;5060723;28;20040;-63